createdAt,value
2022-08-25T00:12:05.297Z,23.65
2022-08-25T00:14:40.677Z,23.66
2022-08-25T00:17:14.378Z,23.64
2022-08-25T00:19:48.180Z,23.63
2022-08-25T00:22:22.278Z,23.62
2022-08-25T00:38:59.617Z,23.52
2022-08-25T00:41:42.258Z,23.51
2022-08-25T00:44:16.797Z,23.49
2022-08-25T00:46:56.279Z,23.48
2022-08-25T00:49:36.485Z,23.48
2022-08-25T00:52:22.283Z,23.47
2022-08-25T01:05:36.310Z,23.39
2022-08-25T01:08:11.724Z,23.36
2022-08-25T01:10:58.282Z,23.34
2022-08-25T01:13:39.025Z,23.36
2022-08-25T01:16:21.426Z,23.34
2022-08-25T01:18:57.943Z,23.34
2022-08-25T01:31:56.241Z,23.28
2022-08-25T01:34:41.283Z,23.26
2022-08-25T01:37:16.343Z,23.23
2022-08-25T01:39:50.335Z,23.22
2022-08-25T01:42:37.522Z,23.21
2022-08-25T01:59:00.306Z,23.09
2022-08-25T02:01:33.933Z,23.06
2022-08-25T02:04:09.142Z,23.06
2022-08-25T02:06:43.982Z,23.08
2022-08-25T02:09:22.284Z,23.06
2022-08-25T02:12:01.102Z,23.03
2022-08-25T02:24:15.243Z,22.98
2022-08-25T02:26:55.301Z,23.01
2022-08-25T02:29:28.839Z,22.99
2022-08-25T02:32:04.269Z,22.98
2022-08-25T02:34:37.745Z,22.94
2022-08-25T02:37:11.284Z,22.89
2022-08-25T02:50:25.324Z,22.86
2022-08-25T02:52:58.804Z,22.85
2022-08-25T02:55:34.549Z,22.82
2022-08-25T02:58:09.108Z,22.82
2022-08-25T03:00:43.341Z,22.82
2022-08-25T03:03:19.105Z,22.81
2022-08-25T03:19:35.986Z,22.75
2022-08-25T03:22:09.783Z,22.73
2022-08-25T03:24:43.283Z,22.72
2022-08-25T03:27:34.324Z,22.69
2022-08-25T03:30:17.224Z,22.66
2022-08-25T03:32:50.964Z,22.66
2022-08-25T03:45:41.360Z,22.59
2022-08-25T03:48:23.283Z,22.59
2022-08-25T03:50:56.846Z,22.56
2022-08-25T03:53:30.305Z,22.57
2022-08-25T03:56:04.245Z,22.55
2022-08-25T03:58:38.284Z,22.50
2022-08-25T04:11:53.129Z,22.45
2022-08-25T04:14:27.806Z,22.46
2022-08-25T04:17:01.396Z,22.45
2022-08-25T04:19:35.864Z,22.44
2022-08-25T04:22:10.786Z,22.46
2022-08-25T04:38:26.244Z,22.43
2022-08-25T04:41:09.266Z,22.42
2022-08-25T04:43:44.405Z,22.42
2022-08-25T04:46:22.406Z,22.42
2022-08-25T04:48:58.926Z,22.43
2022-08-25T04:51:43.243Z,22.44
2022-08-25T04:54:19.145Z,22.46
2022-08-25T05:04:08.323Z,22.42
2022-08-25T05:06:48.943Z,22.41
2022-08-25T05:09:25.373Z,22.41
2022-08-25T05:11:58.992Z,22.43
2022-08-25T05:14:33.434Z,22.43
2022-08-25T05:17:08.052Z,22.46
2022-08-25T05:19:42.291Z,22.46
2022-08-25T05:33:01.271Z,22.49
2022-08-25T05:35:34.891Z,22.51
2022-08-25T05:40:42.713Z,22.52
2022-08-25T05:43:10.442Z,22.52
2022-08-25T05:59:32.292Z,22.62
2022-08-25T06:02:06.113Z,22.61
2022-08-25T06:04:41.384Z,22.62
2022-08-25T06:07:16.212Z,22.63
2022-08-25T06:09:58.334Z,22.63
2022-08-25T06:12:34.073Z,22.65
2022-08-25T06:25:33.251Z,22.72
2022-08-25T06:28:14.313Z,22.73
2022-08-25T06:30:48.073Z,22.75
2022-08-25T06:33:22.232Z,22.73
2022-08-25T06:35:56.912Z,22.73
2022-08-25T06:38:31.252Z,22.72
2022-08-25T06:51:43.291Z,22.72
2022-08-25T06:54:16.859Z,22.72
2022-08-25T06:56:50.292Z,22.75
2022-08-25T06:59:24.032Z,22.77
2022-08-25T07:01:58.380Z,22.79
2022-08-25T07:04:34.333Z,22.81
2022-08-25T07:17:55.253Z,22.90
2022-08-25T07:20:37.174Z,22.93
2022-08-25T07:23:10.833Z,22.99
2022-08-25T07:25:44.274Z,23.02
2022-08-25T07:28:21.092Z,23.07
2022-08-25T07:30:59.060Z,23.11
2022-08-25T07:33:35.053Z,23.20
2022-08-25T07:46:31.330Z,23.37
2022-08-25T07:52:10.611Z,23.46
2022-08-25T07:54:45.272Z,23.48
2022-08-25T07:57:21.315Z,23.52
2022-08-25T08:12:52.471Z,23.71
2022-08-25T08:15:25.973Z,23.78
2022-08-25T08:18:11.331Z,23.85
2022-08-25T08:20:47.828Z,23.93
2022-08-25T08:23:23.439Z,24.01
2022-08-25T08:40:00.323Z,24.43
2022-08-25T08:43:18.090Z,24.50
2022-08-25T08:45:53.830Z,24.57
2022-08-25T08:48:51.313Z,24.66
2022-08-25T08:51:33.454Z,24.73
2022-08-25T08:54:23.116Z,24.76
2022-08-25T09:04:56.251Z,24.97
2022-08-25T09:07:47.202Z,24.99
2022-08-25T09:10:24.454Z,25.01
2022-08-25T09:13:17.312Z,25.05
2022-08-25T09:16:08.079Z,25.06
2022-08-25T09:19:04.311Z,25.08
2022-08-25T09:32:24.057Z,25.25
2022-08-25T09:35:01.539Z,25.27
2022-08-25T09:37:43.331Z,25.31
2022-08-25T09:40:22.672Z,25.33
2022-08-25T09:43:11.334Z,25.36
2022-08-25T09:59:57.667Z,25.67
2022-08-25T10:02:38.292Z,25.75
2022-08-25T10:05:23.718Z,25.82
2022-08-25T10:08:07.311Z,25.93
2022-08-25T10:10:45.912Z,26.04
2022-08-25T10:13:28.311Z,26.18
2022-08-25T10:27:05.052Z,26.42
2022-08-25T10:30:07.012Z,26.44
2022-08-25T10:33:22.312Z,26.47
2022-08-25T10:36:04.330Z,26.49
2022-08-25T10:38:50.852Z,26.52
2022-08-25T10:52:21.331Z,26.70
2022-08-25T10:55:07.831Z,26.72
2022-08-25T10:58:00.271Z,26.76
2022-08-25T11:00:48.110Z,26.78
2022-08-25T11:03:49.291Z,26.84
2022-08-25T11:06:39.071Z,26.92
2022-08-25T11:09:29.271Z,27.00
2022-08-25T11:19:27.251Z,27.43
2022-08-25T11:22:19.519Z,27.54
2022-08-25T11:25:11.651Z,27.68
2022-08-25T11:28:08.194Z,27.77
2022-08-25T11:30:42.685Z,27.83
2022-08-25T11:33:20.330Z,27.85
2022-08-25T11:46:59.351Z,28.06
2022-08-25T11:49:52.573Z,28.03
2022-08-25T11:52:54.333Z,28.01
2022-08-25T11:55:48.534Z,27.99
2022-08-25T11:58:52.313Z,27.98
2022-08-25T12:12:37.327Z,28.07
2022-08-25T12:15:21.571Z,28.09
2022-08-25T12:18:18.879Z,28.09
2022-08-25T12:21:29.171Z,28.14
2022-08-25T12:24:22.271Z,28.20
2022-08-25T12:27:01.310Z,28.24
2022-08-25T12:29:56.151Z,28.29
2022-08-25T12:40:12.348Z,28.35
2022-08-25T12:42:53.974Z,28.41
2022-08-25T12:45:41.967Z,28.47
2022-08-25T12:49:02.323Z,28.58
2022-08-25T12:51:54.213Z,28.64
2022-08-25T13:08:21.359Z,28.90
2022-08-25T13:11:03.811Z,28.97
2022-08-25T13:13:58.312Z,29.00
2022-08-25T13:16:32.133Z,29.06
2022-08-25T13:19:12.311Z,29.06
2022-08-25T13:32:35.603Z,29.40
2022-08-25T13:35:20.174Z,29.45
2022-08-25T13:38:01.369Z,29.51
2022-08-25T13:40:36.577Z,29.48
2022-08-25T13:43:18.554Z,29.47
2022-08-25T13:46:04.601Z,29.48
2022-08-25T13:48:49.445Z,29.47
2022-08-25T13:59:07.292Z,29.50
2022-08-25T14:01:54.499Z,29.48
2022-08-25T14:04:51.764Z,29.51
2022-08-25T14:07:36.351Z,29.52
2022-08-25T14:10:35.815Z,29.56
2022-08-25T14:13:36.379Z,29.57
2022-08-25T14:26:57.372Z,29.66
2022-08-25T14:29:31.153Z,29.68
2022-08-25T14:32:17.351Z,29.68
2022-08-25T14:34:50.940Z,29.68
2022-08-25T14:37:28.171Z,29.71
2022-08-25T14:54:10.291Z,29.82
2022-08-25T14:56:55.311Z,29.86
2022-08-25T14:59:28.791Z,29.88
2022-08-25T15:02:03.371Z,29.86
2022-08-25T15:04:38.718Z,29.80
2022-08-25T15:07:24.511Z,29.80
2022-08-25T15:10:00.881Z,29.83
2022-08-25T15:19:44.362Z,29.80
2022-08-25T15:22:19.781Z,29.77
2022-08-25T15:24:53.302Z,29.74
2022-08-25T15:27:31.025Z,29.72
2022-08-25T15:30:15.521Z,29.72
2022-08-25T15:32:49.940Z,29.70
2022-08-25T15:46:12.264Z,29.67
2022-08-25T15:48:53.301Z,29.70
2022-08-25T15:51:28.141Z,29.73
2022-08-25T15:54:03.341Z,29.75
2022-08-25T15:56:37.002Z,29.80
2022-08-25T15:59:12.300Z,29.79
2022-08-25T16:12:55.301Z,29.78
2022-08-25T16:15:31.525Z,29.78
2022-08-25T16:18:06.321Z,29.74
2022-08-25T16:20:46.471Z,29.74
2022-08-25T16:23:27.341Z,29.75
2022-08-25T16:26:04.801Z,29.82
2022-08-25T16:28:49.321Z,29.91
2022-08-25T16:42:01.742Z,30.58
2022-08-25T16:44:38.422Z,30.74
2022-08-25T16:47:14.017Z,30.87
2022-08-25T16:49:48.301Z,30.96
2022-08-25T16:52:32.081Z,30.99
2022-08-25T16:55:07.661Z,30.93
2022-08-25T17:07:58.301Z,30.47
2022-08-25T17:10:42.322Z,30.43
2022-08-25T17:13:15.841Z,30.34
2022-08-25T17:15:53.351Z,30.22
2022-08-25T17:18:27.382Z,30.07
2022-08-25T17:34:43.342Z,29.16
2022-08-25T17:37:16.858Z,29.06
2022-08-25T17:39:50.371Z,29.01
2022-08-25T17:42:31.327Z,28.94
2022-08-25T17:45:05.402Z,28.85
2022-08-25T17:47:38.841Z,28.76
2022-08-25T17:59:55.301Z,28.44
2022-08-25T18:02:43.905Z,28.37
2022-08-25T18:05:20.181Z,28.31
2022-08-25T18:08:01.341Z,28.25
2022-08-25T18:10:38.141Z,28.19
2022-08-25T18:13:12.341Z,28.14
2022-08-25T18:26:40.357Z,27.96
2022-08-25T18:29:14.793Z,27.95
2022-08-25T18:31:52.028Z,27.93
2022-08-25T18:34:26.863Z,27.92
2022-08-25T18:37:10.342Z,27.91
2022-08-25T18:39:43.865Z,27.84
2022-08-25T18:53:17.301Z,27.66
2022-08-25T18:56:02.183Z,27.61
2022-08-25T18:58:36.029Z,27.58
2022-08-25T19:01:12.635Z,27.53
2022-08-25T19:03:47.121Z,27.45
2022-08-25T19:06:23.321Z,27.42
2022-08-25T19:08:56.901Z,27.39
2022-08-25T19:21:48.475Z,27.30
2022-08-25T19:24:32.361Z,27.29
2022-08-25T19:27:06.161Z,27.28
2022-08-25T19:29:53.361Z,27.25
2022-08-25T19:32:27.670Z,27.22
2022-08-25T19:35:02.403Z,27.22
2022-08-25T19:48:16.341Z,27.12
2022-08-25T19:50:55.893Z,27.08
2022-08-25T19:53:36.322Z,27.05
2022-08-25T19:56:10.482Z,27.05
2022-08-25T19:58:45.602Z,27.03
2022-08-25T20:15:25.301Z,26.91
2022-08-25T20:18:06.328Z,26.92
2022-08-25T20:20:40.781Z,26.90
2022-08-25T20:23:15.341Z,26.91
2022-08-25T20:25:48.878Z,26.90
2022-08-25T20:28:24.321Z,26.90
2022-08-25T20:41:36.345Z,26.89
2022-08-25T20:44:09.862Z,26.88
2022-08-25T20:46:43.361Z,26.87
2022-08-25T20:49:18.144Z,26.89
2022-08-25T20:51:52.330Z,26.90
2022-08-25T20:54:25.941Z,26.91
2022-08-25T21:07:17.301Z,26.82
2022-08-25T21:09:58.342Z,26.80
2022-08-25T21:12:31.885Z,26.79
2022-08-25T21:15:05.381Z,26.76
2022-08-25T21:17:40.902Z,26.75
2022-08-25T21:20:17.351Z,26.73
2022-08-25T21:33:58.363Z,26.61
2022-08-25T21:36:32.204Z,26.60
2022-08-25T21:39:07.343Z,26.58
2022-08-25T21:41:42.461Z,26.55
2022-08-25T21:44:18.362Z,26.55
2022-08-25T21:46:57.201Z,26.53
2022-08-25T21:49:39.321Z,26.51
2022-08-25T22:02:50.372Z,26.39
2022-08-25T22:05:25.863Z,26.38
2022-08-25T22:07:59.541Z,26.36
2022-08-25T22:10:42.364Z,26.34
2022-08-25T22:13:23.582Z,26.31
2022-08-25T22:27:20.316Z,26.21
2022-08-25T22:29:58.936Z,26.19
2022-08-25T22:32:32.359Z,26.18
2022-08-25T22:35:08.084Z,26.17
2022-08-25T22:37:50.320Z,26.16
2022-08-25T22:40:25.439Z,26.14
2022-08-25T22:42:59.365Z,26.13
2022-08-25T22:56:13.338Z,26.07
2022-08-25T22:58:51.689Z,26.05
2022-08-25T23:01:27.358Z,26.02
2022-08-25T23:04:02.937Z,25.99
2022-08-25T23:06:37.398Z,25.98
2022-08-25T23:09:11.697Z,25.96
2022-08-25T23:22:02.307Z,25.91
2022-08-25T23:24:44.337Z,25.90
2022-08-25T23:27:21.137Z,25.88
2022-08-25T23:29:57.337Z,25.87
2022-08-25T23:32:31.349Z,25.86
2022-08-25T23:35:05.338Z,25.85
2022-08-25T23:48:18.814Z,25.81
2022-08-25T23:50:54.258Z,25.78
2022-08-25T23:53:28.329Z,25.77
2022-08-25T23:56:03.090Z,25.76
2022-08-25T23:58:46.344Z,25.74
